createdAt,value
2017-09-25T00:02:25.843Z,18.43
2017-09-25T00:04:53.351Z,19.23
2017-09-25T00:07:20.821Z,18.10
2017-09-25T00:09:50.046Z,18.40
2017-09-25T00:12:17.518Z,20.63
2017-09-25T00:14:44.983Z,19.50
2017-09-25T00:17:12.463Z,19.10
2017-09-25T00:19:39.922Z,18.97
2017-09-25T00:22:07.403Z,17.23
2017-09-25T00:24:35.631Z,18.67
2017-09-25T00:27:03.112Z,18.10
2017-09-25T00:29:30.581Z,19.70
2017-09-25T00:31:58.067Z,21.27
2017-09-25T00:34:26.311Z,22.37
2017-09-25T00:36:53.791Z,20.80
2017-09-25T00:39:21.246Z,20.87
2017-09-25T00:41:48.719Z,22.10
2017-09-25T00:44:16.967Z,22.23
2017-09-25T00:46:44.455Z,23.40
2017-09-25T00:49:12.698Z,21.30
2017-09-25T00:51:40.176Z,21.37
2017-09-25T00:54:07.632Z,22.57
2017-09-25T00:56:35.120Z,23.70
2017-09-25T00:59:02.581Z,22.70
2017-09-25T01:01:42.068Z,25.77
2017-09-25T01:04:21.479Z,23.70
2017-09-25T01:06:48.959Z,24.43
2017-09-25T01:09:16.432Z,23.13
2017-09-25T01:11:43.902Z,28.57
2017-09-25T01:14:11.370Z,26.17
2017-09-25T01:16:39.603Z,26.90
2017-09-25T01:19:07.079Z,26.10
2017-09-25T01:21:34.541Z,22.77
2017-09-25T01:24:02.462Z,26.70
2017-09-25T01:26:29.923Z,26.07
2017-09-25T01:28:57.403Z,24.47
2017-09-25T01:31:24.862Z,26.40
2017-09-25T01:33:52.343Z,23.47
2017-09-25T01:36:19.819Z,23.53
2017-09-25T01:38:48.057Z,25.50
2017-09-25T01:41:15.943Z,26.30
2017-09-25T01:43:43.417Z,27.30
2017-09-25T01:46:10.881Z,25.80
2017-09-25T01:48:45.052Z,25.53
2017-09-25T01:51:12.535Z,25.87
2017-09-25T01:53:40.016Z,26.70
2017-09-25T01:56:08.248Z,25.87
2017-09-25T01:58:35.706Z,25.30
2017-09-25T02:01:03.194Z,26.60
2017-09-25T02:03:30.659Z,25.90
2017-09-25T02:05:58.898Z,24.07
2017-09-25T02:08:26.377Z,24.57
2017-09-25T02:10:54.638Z,26.10
2017-09-25T02:13:22.124Z,25.47
2017-09-25T02:15:49.608Z,23.40
2017-09-25T02:18:17.840Z,23.43
2017-09-25T02:20:45.321Z,23.27
2017-09-25T02:23:12.796Z,23.73
2017-09-25T02:25:41.035Z,25.70
2017-09-25T02:28:08.501Z,24.40
2017-09-25T02:30:35.981Z,22.30
2017-09-25T02:33:04.220Z,26.03
2017-09-25T02:35:35.584Z,28.67
2017-09-25T02:38:03.060Z,28.80
2017-09-25T02:40:31.308Z,25.80
2017-09-25T02:42:58.779Z,27.97
2017-09-25T02:45:26.260Z,27.67
2017-09-25T02:47:54.492Z,29.07
2017-09-25T02:50:23.094Z,32.30
2017-09-25T02:52:50.572Z,30.30
2017-09-25T02:55:18.825Z,30.20
2017-09-25T02:57:46.291Z,27.90
2017-09-25T03:00:13.760Z,26.03
2017-09-25T03:02:41.239Z,30.37
2017-09-25T03:05:09.502Z,26.40
2017-09-25T03:07:37.749Z,26.90
2017-09-25T03:10:05.217Z,28.70
2017-09-25T03:12:32.707Z,28.73
2017-09-25T03:15:00.935Z,26.23
2017-09-25T03:17:28.416Z,28.17
2017-09-25T03:19:56.012Z,29.57
2017-09-25T03:22:23.516Z,27.90
2017-09-25T03:24:50.993Z,30.10
2017-09-25T03:27:18.490Z,30.97
2017-09-25T03:29:45.955Z,31.60
2017-09-25T03:32:13.430Z,31.03
2017-09-25T03:34:40.895Z,29.30
2017-09-25T03:37:08.380Z,29.03
2017-09-25T03:39:35.848Z,30.03
2017-09-25T03:42:03.325Z,28.67
2017-09-25T03:44:31.584Z,30.03
2017-09-25T03:46:59.835Z,28.50
2017-09-25T03:49:27.316Z,30.70
2017-09-25T03:51:54.787Z,31.00
2017-09-25T03:54:23.022Z,27.93
2017-09-25T03:56:50.509Z,30.10
2017-09-25T03:59:17.976Z,28.20
2017-09-25T04:01:45.457Z,27.20
2017-09-25T04:04:13.698Z,26.20
2017-09-25T04:06:41.180Z,28.27
2017-09-25T04:09:09.420Z,27.67
2017-09-25T04:11:36.947Z,29.30
2017-09-25T04:14:04.421Z,27.33
2017-09-25T04:16:31.888Z,27.17
2017-09-25T04:18:59.380Z,28.97
2017-09-25T04:21:26.855Z,27.50
2017-09-25T04:23:55.091Z,27.87
2017-09-25T04:26:22.569Z,23.63
2017-09-25T04:28:50.053Z,26.43
2017-09-25T04:31:18.316Z,28.57
2017-09-25T04:33:46.570Z,28.00
2017-09-25T04:36:14.032Z,25.37
2017-09-25T04:38:41.517Z,27.43
2017-09-25T04:41:09.747Z,24.77
2017-09-25T04:43:37.588Z,24.67
2017-09-25T04:46:05.052Z,25.63
2017-09-25T04:48:32.532Z,29.53
2017-09-25T04:50:59.995Z,25.60
2017-09-25T04:53:27.484Z,26.77
2017-09-25T04:55:55.724Z,26.97
2017-09-25T04:58:23.188Z,26.60
2017-09-25T05:00:50.675Z,26.90
2017-09-25T05:03:18.145Z,27.80
2017-09-25T05:05:46.388Z,27.20
2017-09-25T05:08:13.856Z,28.33
2017-09-25T05:10:41.351Z,28.27
2017-09-25T05:13:09.597Z,27.33
2017-09-25T05:15:38.775Z,27.30
2017-09-25T05:18:08.565Z,27.57
2017-09-25T05:20:36.043Z,27.00
2017-09-25T05:23:03.520Z,27.13
2017-09-25T05:25:31.004Z,26.47
2017-09-25T05:27:59.247Z,26.57
2017-09-25T05:30:26.733Z,25.87
2017-09-25T05:32:54.964Z,27.17
2017-09-25T05:35:23.217Z,27.53
2017-09-25T05:37:50.685Z,27.87
2017-09-25T05:40:18.160Z,28.50
2017-09-25T05:42:45.632Z,31.20
2017-09-25T05:45:13.115Z,29.90
2017-09-25T05:47:41.349Z,29.60
2017-09-25T05:50:08.829Z,29.37
2017-09-25T05:52:36.306Z,30.37
2017-09-25T05:55:03.788Z,28.23
2017-09-25T05:57:31.264Z,28.00
2017-09-25T05:59:58.730Z,28.30
2017-09-25T06:02:26.222Z,26.17
2017-09-25T06:04:53.684Z,27.13
2017-09-25T06:07:21.175Z,27.50
2017-09-25T06:09:49.407Z,29.13
2017-09-25T06:12:16.913Z,33.00
2017-09-25T06:14:45.142Z,35.77
2017-09-25T06:17:12.629Z,36.27
2017-09-25T06:19:40.865Z,33.60
2017-09-25T06:22:08.334Z,35.03
2017-09-25T06:24:35.810Z,36.97
2017-09-25T06:27:03.296Z,32.33
2017-09-25T06:29:31.528Z,36.40
2017-09-25T06:31:59.006Z,34.77
2017-09-25T06:34:26.487Z,34.33
2017-09-25T06:36:54.728Z,35.67
2017-09-25T06:39:22.192Z,32.50
2017-09-25T06:41:49.667Z,28.97
2017-09-25T06:44:17.904Z,26.43
2017-09-25T06:46:45.393Z,31.27
2017-09-25T06:49:12.865Z,30.10
2017-09-25T06:51:41.101Z,27.57
2017-09-25T06:54:08.567Z,28.90
2017-09-25T06:56:36.052Z,29.07
2017-09-25T06:59:04.289Z,28.50
2017-09-25T07:01:31.790Z,29.57
2017-09-25T07:04:00.034Z,31.20
2017-09-25T07:06:27.529Z,34.07
2017-09-25T07:08:55.764Z,35.07
2017-09-25T07:11:24.012Z,37.37
2017-09-25T07:13:51.483Z,38.73
2017-09-25T07:16:18.967Z,38.93
2017-09-25T07:18:46.459Z,37.10
2017-09-25T07:21:14.694Z,38.60
2017-09-25T07:23:42.168Z,37.90
2017-09-25T07:26:09.640Z,40.47
2017-09-25T07:28:37.119Z,42.10
2017-09-25T07:31:05.361Z,44.20
2017-09-25T07:33:32.836Z,40.80
2017-09-25T07:36:01.080Z,41.80
2017-09-25T07:38:28.567Z,40.47
2017-09-25T07:40:56.040Z,43.27
2017-09-25T07:43:24.295Z,44.07
2017-09-25T07:45:51.777Z,44.23
2017-09-25T07:48:20.041Z,41.07
2017-09-25T07:50:47.521Z,42.07
2017-09-25T07:53:15.007Z,45.43
2017-09-25T07:55:42.480Z,47.07
2017-09-25T07:58:09.963Z,49.23
2017-09-25T08:00:37.436Z,47.17
2017-09-25T08:03:05.691Z,48.40
2017-09-25T08:05:33.213Z,46.33
2017-09-25T08:08:00.922Z,46.10
2017-09-25T08:10:28.400Z,44.13
2017-09-25T08:12:57.304Z,45.63
2017-09-25T08:15:24.781Z,44.43
2017-09-25T08:17:52.262Z,45.00
2017-09-25T08:20:19.744Z,41.07
2017-09-25T08:22:54.071Z,43.60
2017-09-25T08:25:21.556Z,43.40
2017-09-25T08:27:49.800Z,42.93
2017-09-25T08:30:17.298Z,41.77
2017-09-25T08:32:44.768Z,44.50
2017-09-25T08:35:12.232Z,41.30
2017-09-25T08:37:39.735Z,41.70
2017-09-25T08:40:07.215Z,42.10
2017-09-25T08:42:35.468Z,44.00
2017-09-25T08:45:02.944Z,44.27
2017-09-25T08:47:31.189Z,43.60
2017-09-25T08:49:58.764Z,43.40
2017-09-25T08:52:26.249Z,42.60
2017-09-25T08:54:54.489Z,41.57
2017-09-25T08:57:21.967Z,46.30
2017-09-25T08:59:49.442Z,42.30
2017-09-25T09:02:17.686Z,43.53
2017-09-25T09:04:45.184Z,39.73
2017-09-25T09:07:13.428Z,42.83
2017-09-25T09:09:40.896Z,38.50
2017-09-25T09:12:08.359Z,41.50
2017-09-25T09:14:36.620Z,39.80
2017-09-25T09:17:04.100Z,37.60
2017-09-25T09:19:32.352Z,41.80
2017-09-25T09:21:59.830Z,39.73
2017-09-25T09:24:27.316Z,44.37
2017-09-25T09:26:54.801Z,42.17
2017-09-25T09:29:22.278Z,41.80
2017-09-25T09:31:49.765Z,40.70
2017-09-25T09:34:17.252Z,37.83
2017-09-25T09:36:44.721Z,40.40
2017-09-25T09:39:12.207Z,38.93
2017-09-25T09:41:39.688Z,39.97
2017-09-25T09:44:07.191Z,39.90
2017-09-25T09:46:34.654Z,40.73
2017-09-25T09:49:02.143Z,40.97
2017-09-25T09:51:29.624Z,40.30
2017-09-25T09:53:57.421Z,38.60
2017-09-25T09:56:24.904Z,39.57
2017-09-25T09:58:52.384Z,41.23
2017-09-25T10:01:19.848Z,37.40
2017-09-25T10:03:47.323Z,39.23
2017-09-25T10:09:07.731Z,39.63
2017-09-25T10:11:35.206Z,38.97
2017-09-25T10:14:03.444Z,38.73
2017-09-25T10:16:30.928Z,40.10
2017-09-25T10:18:58.399Z,38.93
2017-09-25T10:21:25.880Z,37.73
2017-09-25T10:23:53.344Z,37.90
2017-09-25T10:26:20.829Z,38.60
2017-09-25T10:28:48.295Z,39.47
2017-09-25T10:31:15.792Z,41.90
2017-09-25T10:33:43.259Z,39.53
2017-09-25T10:36:11.520Z,42.03
2017-09-25T10:38:38.987Z,45.27
2017-09-25T10:41:07.232Z,45.50
2017-09-25T10:43:34.762Z,46.50
2017-09-25T10:46:02.532Z,45.87
2017-09-25T10:48:30.008Z,43.67
2017-09-25T10:50:57.512Z,46.37
2017-09-25T10:53:25.746Z,40.77
2017-09-25T10:55:53.233Z,43.50
2017-09-25T10:58:20.696Z,44.70
2017-09-25T11:00:48.176Z,47.30
2017-09-25T11:03:16.416Z,47.03
2017-09-25T11:05:43.901Z,49.50
2017-09-25T11:08:12.144Z,45.43
2017-09-25T11:10:39.620Z,44.77
2017-09-25T11:13:07.101Z,45.67
2017-09-25T11:15:35.328Z,47.57
2017-09-25T11:18:02.803Z,44.07
2017-09-25T11:20:30.280Z,45.60
2017-09-25T11:22:57.759Z,41.60
2017-09-25T11:25:25.984Z,43.80
2017-09-25T11:27:53.463Z,47.00
2017-09-25T11:30:20.931Z,46.50
2017-09-25T11:32:48.419Z,44.77
2017-09-25T11:35:15.889Z,43.53
2017-09-25T11:37:43.384Z,43.10
2017-09-25T11:40:10.851Z,43.57
2017-09-25T11:42:38.323Z,39.33
2017-09-25T11:45:05.796Z,38.97
2017-09-25T11:47:34.029Z,40.20
2017-09-25T11:50:01.504Z,38.30
2017-09-25T11:52:28.983Z,35.97
2017-09-25T11:54:57.217Z,35.07
2017-09-25T11:57:26.338Z,35.27
2017-09-25T11:59:53.800Z,33.93
2017-09-25T12:02:21.280Z,32.03
2017-09-25T12:04:49.511Z,32.00
2017-09-25T12:07:16.991Z,32.17
2017-09-25T12:09:44.455Z,28.57
2017-09-25T12:12:11.935Z,24.73
2017-09-25T12:14:40.176Z,23.77
2017-09-25T12:17:07.657Z,18.63
2017-09-25T12:19:35.901Z,16.53
2017-09-25T12:22:03.371Z,15.53
2017-09-25T12:24:30.844Z,16.10
2017-09-25T12:26:58.324Z,13.43
2017-09-25T12:29:25.797Z,14.00
2017-09-25T12:31:53.288Z,14.50
2017-09-25T12:34:20.750Z,15.67
2017-09-25T12:36:48.240Z,15.17
2017-09-25T12:39:15.703Z,16.93
2017-09-25T12:41:43.948Z,16.80
2017-09-25T12:44:11.414Z,16.20
2017-09-25T12:46:38.895Z,16.10
2017-09-25T12:49:07.136Z,16.20
2017-09-25T12:51:34.618Z,17.20
2017-09-25T12:54:02.909Z,16.60
2017-09-25T12:56:31.148Z,17.70
2017-09-25T12:58:58.652Z,16.13
2017-09-25T13:01:26.924Z,18.27
2017-09-25T13:03:54.408Z,22.57
2017-09-25T13:06:21.892Z,21.27
2017-09-25T13:08:49.388Z,23.10
2017-09-25T13:11:16.857Z,22.07
2017-09-25T13:13:44.336Z,24.17
2017-09-25T13:16:11.832Z,24.23
2017-09-25T13:18:39.305Z,20.53
2017-09-25T13:21:06.776Z,20.43
2017-09-25T13:23:34.268Z,19.93
2017-09-25T13:26:02.505Z,21.23
2017-09-25T13:28:29.989Z,21.50
2017-09-25T13:30:58.237Z,23.07
2017-09-25T13:33:25.726Z,22.87
2017-09-25T13:35:53.946Z,24.90
2017-09-25T13:38:21.435Z,24.97
2017-09-25T13:40:48.907Z,26.80
2017-09-25T13:43:16.502Z,25.20
2017-09-25T13:45:44.018Z,27.87
2017-09-25T13:48:11.528Z,25.30
2017-09-25T13:50:39.021Z,28.37
2017-09-25T13:53:06.522Z,26.47
2017-09-25T13:55:33.998Z,27.07
2017-09-25T13:58:01.474Z,26.00
2017-09-25T14:03:01.802Z,27.13
2017-09-25T14:05:29.297Z,25.70
2017-09-25T14:07:56.772Z,27.40
2017-09-25T14:10:25.000Z,27.60
2017-09-25T14:12:52.480Z,28.00
2017-09-25T14:15:19.952Z,27.40
2017-09-25T14:17:47.441Z,29.40
2017-09-25T14:20:16.488Z,28.70
2017-09-25T14:22:43.996Z,31.93
2017-09-25T14:25:11.440Z,29.93
2017-09-25T14:27:39.685Z,27.90
2017-09-25T14:30:07.187Z,29.83
2017-09-25T14:32:35.406Z,29.47
2017-09-25T14:35:02.891Z,31.20
2017-09-25T14:37:30.355Z,29.87
2017-09-25T14:39:57.850Z,31.93
2017-09-25T14:42:25.325Z,30.50
2017-09-25T14:44:52.824Z,30.77
2017-09-25T14:47:20.300Z,33.00
2017-09-25T14:49:48.545Z,34.43
2017-09-25T14:52:16.040Z,35.17
2017-09-25T14:54:44.300Z,36.50
2017-09-25T14:57:11.767Z,35.33
2017-09-25T14:59:40.021Z,38.67
2017-09-25T15:02:07.752Z,38.80
2017-09-25T15:04:35.223Z,42.40
2017-09-25T15:07:02.691Z,42.57
2017-09-25T15:09:30.184Z,41.67
2017-09-25T15:11:58.421Z,40.70
2017-09-25T15:14:25.896Z,42.90
2017-09-25T15:16:53.367Z,38.73
2017-09-25T15:19:20.836Z,43.67
2017-09-25T15:21:49.081Z,42.00
2017-09-25T15:24:16.563Z,39.97
2017-09-25T15:26:44.037Z,41.03
2017-09-25T15:29:12.284Z,40.20
2017-09-25T15:31:39.752Z,39.93
2017-09-25T15:34:07.222Z,43.17
2017-09-25T15:36:35.475Z,39.60
2017-09-25T15:39:02.959Z,39.10
2017-09-25T15:41:31.200Z,45.57
2017-09-25T15:43:58.674Z,40.83
2017-09-25T15:46:26.155Z,38.50
2017-09-25T15:48:54.383Z,39.17
2017-09-25T15:51:21.872Z,36.83
2017-09-25T15:53:51.116Z,36.50
2017-09-25T15:56:18.604Z,35.77
2017-09-25T15:58:46.073Z,33.97
2017-09-25T16:01:13.548Z,32.63
2017-09-25T16:03:41.011Z,32.27
2017-09-25T16:06:08.491Z,31.47
2017-09-25T16:08:35.965Z,30.60
2017-09-25T16:11:03.436Z,29.23
2017-09-25T16:13:30.919Z,31.40
2017-09-25T16:15:58.390Z,32.07
2017-09-25T16:18:25.872Z,31.43
2017-09-25T16:20:54.108Z,30.23
2017-09-25T16:23:22.355Z,29.00
2017-09-25T16:25:49.827Z,29.80
2017-09-25T16:28:17.302Z,30.60
2017-09-25T16:30:44.783Z,31.10
2017-09-25T16:33:12.250Z,30.30
2017-09-25T16:35:40.487Z,32.33
2017-09-25T16:38:07.964Z,31.23
2017-09-25T16:40:35.431Z,32.30
2017-09-25T16:43:02.913Z,30.87
2017-09-25T16:45:31.145Z,29.50
2017-09-25T16:47:58.633Z,29.30
2017-09-25T16:50:26.107Z,29.87
2017-09-25T16:52:54.356Z,26.80
2017-09-25T16:55:21.837Z,28.30
2017-09-25T16:57:50.076Z,30.80
2017-09-25T17:00:17.551Z,30.60
2017-09-25T17:02:45.032Z,27.13
2017-09-25T17:05:13.270Z,28.00
2017-09-25T17:07:40.756Z,28.20
2017-09-25T17:10:08.228Z,27.83
2017-09-25T17:12:36.465Z,28.60
2017-09-25T17:15:03.955Z,25.57
2017-09-25T17:17:32.192Z,29.17
2017-09-25T17:19:59.680Z,28.20
2017-09-25T17:22:27.208Z,28.60
2017-09-25T17:24:54.680Z,27.57
2017-09-25T17:27:22.163Z,29.10
2017-09-25T17:29:49.635Z,28.90
2017-09-25T17:32:17.880Z,27.83
2017-09-25T17:34:45.366Z,26.60
2017-09-25T17:37:13.608Z,25.33
2017-09-25T17:39:41.088Z,26.00
2017-09-25T17:42:08.587Z,28.97
2017-09-25T17:44:36.060Z,25.33
2017-09-25T17:47:03.528Z,24.17
2017-09-25T17:49:31.771Z,24.40
2017-09-25T17:51:59.244Z,21.03
2017-09-25T17:54:26.724Z,21.50
2017-09-25T17:56:54.198Z,21.27
2017-09-25T17:59:21.668Z,22.20
2017-09-25T18:01:49.150Z,19.83
2017-09-25T18:04:18.192Z,19.60
2017-09-25T18:06:45.663Z,21.03
2017-09-25T18:09:13.151Z,20.30
2017-09-25T18:11:41.396Z,21.03
2017-09-25T18:14:08.873Z,20.30
2017-09-25T18:16:36.360Z,21.07
2017-09-25T18:19:04.600Z,21.30
2017-09-25T18:21:32.076Z,20.70
2017-09-25T18:24:00.310Z,22.77
2017-09-25T18:26:27.795Z,20.50
2017-09-25T18:28:55.278Z,21.23
2017-09-25T18:31:23.523Z,21.97
2017-09-25T18:33:51.001Z,21.27
2017-09-25T18:36:21.436Z,20.70
2017-09-25T18:38:49.668Z,21.70
2017-09-25T18:41:17.151Z,22.97
2017-09-25T18:43:44.627Z,21.33
2017-09-25T18:46:12.876Z,20.77
2017-09-25T18:48:40.339Z,20.03
2017-09-25T18:51:07.828Z,22.60
2017-09-25T18:53:36.068Z,22.17
2017-09-25T18:56:03.552Z,23.80
2017-09-25T18:58:31.027Z,24.30
2017-09-25T19:00:59.263Z,26.07
2017-09-25T19:03:26.749Z,27.80
2017-09-25T19:05:55.009Z,26.37
2017-09-25T19:08:22.480Z,31.50
2017-09-25T19:10:49.973Z,28.53
2017-09-25T19:13:18.229Z,27.27
2017-09-25T19:15:46.496Z,27.37
2017-09-25T19:18:18.258Z,25.57
2017-09-25T19:20:45.753Z,26.53
2017-09-25T19:23:13.226Z,25.13
2017-09-25T19:25:40.741Z,28.10
2017-09-25T19:28:08.996Z,28.80
2017-09-25T19:30:36.467Z,25.57
2017-09-25T19:33:04.702Z,26.40
2017-09-25T19:35:32.176Z,27.37
2017-09-25T19:38:00.419Z,27.30
2017-09-25T19:40:27.902Z,24.47
2017-09-25T19:42:55.396Z,25.13
2017-09-25T19:45:23.629Z,24.23
2017-09-25T19:47:55.609Z,28.17
2017-09-25T19:53:24.516Z,27.30
2017-09-25T19:55:58.543Z,24.43
2017-09-25T19:58:41.852Z,27.43
2017-09-25T20:01:09.328Z,26.77
2017-09-25T20:03:36.807Z,26.50
2017-09-25T20:06:05.908Z,27.20
2017-09-25T20:08:34.157Z,25.20
2017-09-25T20:11:03.518Z,26.53
2017-09-25T20:13:31.024Z,25.80
2017-09-25T20:16:09.168Z,27.40
2017-09-25T20:18:37.406Z,25.07
2017-09-25T20:21:04.875Z,26.83
2017-09-25T20:23:32.368Z,26.27
2017-09-25T20:25:59.843Z,27.83
2017-09-25T20:28:27.372Z,28.20
2017-09-25T20:30:55.627Z,28.97
2017-09-25T20:33:23.096Z,29.37
2017-09-25T20:35:51.339Z,28.90
2017-09-25T20:38:18.810Z,31.73
2017-09-25T20:40:50.943Z,31.30
2017-09-25T20:43:20.200Z,29.10
2017-09-25T20:45:48.448Z,31.40
2017-09-25T20:48:15.916Z,30.90
2017-09-25T20:50:43.387Z,30.40
2017-09-25T20:53:11.641Z,31.87
2017-09-25T20:55:39.124Z,32.20
2017-09-25T20:58:06.586Z,32.07
2017-09-25T21:00:34.835Z,32.43
2017-09-25T21:03:02.304Z,32.73
2017-09-25T21:05:29.814Z,33.33
2017-09-25T21:07:57.299Z,33.30
2017-09-25T21:10:24.768Z,33.60
2017-09-25T21:12:52.245Z,33.80
2017-09-25T21:15:19.727Z,34.87
2017-09-25T21:17:47.969Z,36.37
2017-09-25T21:20:15.441Z,34.23
2017-09-25T21:22:42.945Z,35.07
2017-09-25T21:25:10.420Z,36.33
2017-09-25T21:27:41.391Z,37.57
2017-09-25T21:30:08.865Z,34.83
2017-09-25T21:32:37.105Z,35.70
2017-09-25T21:35:04.576Z,35.50
2017-09-25T21:37:32.096Z,36.13
2017-09-25T21:39:59.567Z,36.10
2017-09-25T21:42:27.047Z,36.00
2017-09-25T21:44:54.528Z,35.87
2017-09-25T21:47:22.000Z,35.67
2017-09-25T21:49:50.240Z,35.60
2017-09-25T21:52:17.719Z,35.13
2017-09-25T21:54:45.194Z,35.00
2017-09-25T21:57:13.467Z,35.23
2017-09-25T21:59:41.712Z,34.63
2017-09-25T22:02:09.183Z,36.23
2017-09-25T22:04:36.668Z,35.87
2017-09-25T22:07:04.913Z,36.57
2017-09-25T22:09:32.384Z,33.93
2017-09-25T22:11:59.867Z,35.10
2017-09-25T22:14:27.327Z,33.20
2017-09-25T22:16:54.807Z,34.90
2017-09-25T22:19:22.275Z,32.40
2017-09-25T22:21:49.800Z,34.70
2017-09-25T22:24:18.053Z,33.23
2017-09-25T22:26:46.304Z,32.47
2017-09-25T22:29:13.776Z,34.20
2017-09-25T22:31:41.266Z,35.00
2017-09-25T22:34:09.513Z,35.40
2017-09-25T22:36:36.983Z,35.10
2017-09-25T22:39:05.159Z,35.77
2017-09-25T22:41:32.628Z,32.67
2017-09-25T22:44:05.684Z,34.03
2017-09-25T22:46:33.250Z,30.93
2017-09-25T22:49:00.730Z,33.47
2017-09-25T22:51:29.037Z,33.33
2017-09-25T22:53:56.512Z,32.37
2017-09-25T22:56:23.970Z,29.43
2017-09-25T22:58:51.457Z,31.80
2017-09-25T23:01:18.919Z,32.10
2017-09-25T23:04:04.086Z,34.47
2017-09-25T23:06:31.556Z,32.30
2017-09-25T23:08:59.028Z,32.20
2017-09-25T23:11:29.171Z,32.27
2017-09-25T23:13:56.655Z,32.20
2017-09-25T23:16:24.127Z,34.53
2017-09-25T23:18:51.608Z,33.57
2017-09-25T23:21:19.076Z,33.27
2017-09-25T23:23:46.547Z,33.70
2017-09-25T23:26:14.787Z,31.90
2017-09-25T23:28:42.259Z,32.50
2017-09-25T23:34:14.495Z,34.07
2017-09-25T23:36:43.298Z,33.87
2017-09-25T23:39:10.768Z,30.77
2017-09-25T23:41:38.257Z,32.17
2017-09-25T23:44:05.724Z,31.97
2017-09-25T23:46:33.214Z,32.73
2017-09-25T23:49:00.693Z,31.77
2017-09-25T23:51:28.175Z,30.70
2017-09-25T23:53:55.639Z,31.47
2017-09-25T23:56:23.131Z,30.83
2017-09-25T23:58:51.367Z,30.20
